sensor_id;sensor_type;location;lat;lon;timestamp;P1;durP1;ratioP1;P2;durP2;ratioP2
10711;SDS011;5407;51.234;6.804;2022-09-16T00:00:32;2.35;;;0.93;;
10711;SDS011;5407;51.234;6.804;2022-09-16T00:03:00;1.25;;;0.88;;
10711;SDS011;5407;51.234;6.804;2022-09-16T00:05:28;1.08;;;0.80;;
10711;SDS011;5407;51.234;6.804;2022-09-16T00:07:55;1.30;;;1.00;;
10711;SDS011;5407;51.234;6.804;2022-09-16T00:10:23;2.13;;;1.00;;
10711;SDS011;5407;51.234;6.804;2022-09-16T00:12:50;1.60;;;0.80;;
10711;SDS011;5407;51.234;6.804;2022-09-16T00:15:17;1.23;;;1.00;;
10711;SDS011;5407;51.234;6.804;2022-09-16T00:17:44;3.67;;;1.40;;
10711;SDS011;5407;51.234;6.804;2022-09-16T00:20:11;2.13;;;0.80;;
10711;SDS011;5407;51.234;6.804;2022-09-16T00:22:40;1.35;;;0.95;;
10711;SDS011;5407;51.234;6.804;2022-09-16T00:25:07;1.75;;;1.00;;
10711;SDS011;5407;51.234;6.804;2022-09-16T00:27:34;2.83;;;0.90;;
10711;SDS011;5407;51.234;6.804;2022-09-16T00:30:01;1.45;;;1.00;;
10711;SDS011;5407;51.234;6.804;2022-09-16T00:32:29;1.23;;;0.77;;
10711;SDS011;5407;51.234;6.804;2022-09-16T00:34:56;0.82;;;0.80;;
10711;SDS011;5407;51.234;6.804;2022-09-16T00:37:23;1.15;;;0.90;;
10711;SDS011;5407;51.234;6.804;2022-09-16T00:39:51;2.17;;;0.90;;
10711;SDS011;5407;51.234;6.804;2022-09-16T00:42:18;0.82;;;0.70;;
10711;SDS011;5407;51.234;6.804;2022-09-16T00:44:50;0.98;;;0.75;;
10711;SDS011;5407;51.234;6.804;2022-09-16T00:47:20;2.15;;;0.85;;
10711;SDS011;5407;51.234;6.804;2022-09-16T00:49:51;2.40;;;1.00;;
10711;SDS011;5407;51.234;6.804;2022-09-16T00:52:23;1.13;;;0.80;;
10711;SDS011;5407;51.234;6.804;2022-09-16T00:54:53;1.02;;;0.80;;
10711;SDS011;5407;51.234;6.804;2022-09-16T00:57:20;3.88;;;1.10;;
10711;SDS011;5407;51.234;6.804;2022-09-16T00:59:49;1.75;;;0.98;;
10711;SDS011;5407;51.234;6.804;2022-09-16T01:02:20;1.48;;;1.00;;
10711;SDS011;5407;51.234;6.804;2022-09-16T01:04:50;3.97;;;0.85;;
10711;SDS011;5407;51.234;6.804;2022-09-16T01:07:23;2.72;;;0.93;;
10711;SDS011;5407;51.234;6.804;2022-09-16T01:09:57;1.15;;;0.77;;
10711;SDS011;5407;51.234;6.804;2022-09-16T01:12:25;1.88;;;0.93;;
10711;SDS011;5407;51.234;6.804;2022-09-16T01:14:55;1.65;;;0.60;;
10711;SDS011;5407;51.234;6.804;2022-09-16T01:17:26;2.13;;;1.08;;
10711;SDS011;5407;51.234;6.804;2022-09-16T01:20:05;2.15;;;1.23;;
10711;SDS011;5407;51.234;6.804;2022-09-16T01:22:58;1.60;;;1.00;;
10711;SDS011;5407;51.234;6.804;2022-09-16T01:25:42;1.88;;;0.98;;
10711;SDS011;5407;51.234;6.804;2022-09-16T01:28:34;1.60;;;0.90;;
10711;SDS011;5407;51.234;6.804;2022-09-16T01:31:19;0.90;;;0.80;;
10711;SDS011;5407;51.234;6.804;2022-09-16T01:33:53;1.13;;;0.80;;
10711;SDS011;5407;51.234;6.804;2022-09-16T01:36:29;2.05;;;0.90;;
10711;SDS011;5407;51.234;6.804;2022-09-16T01:39:06;2.28;;;1.00;;
10711;SDS011;5407;51.234;6.804;2022-09-16T01:41:44;1.65;;;0.82;;
10711;SDS011;5407;51.234;6.804;2022-09-16T01:44:23;1.15;;;0.73;;
10711;SDS011;5407;51.234;6.804;2022-09-16T01:47:00;1.33;;;0.90;;
10711;SDS011;5407;51.234;6.804;2022-09-16T01:49:34;1.20;;;0.70;;
10711;SDS011;5407;51.234;6.804;2022-09-16T01:52:11;1.10;;;0.60;;
10711;SDS011;5407;51.234;6.804;2022-09-16T01:54:46;1.67;;;0.80;;
10711;SDS011;5407;51.234;6.804;2022-09-16T01:57:19;1.02;;;0.80;;
10711;SDS011;5407;51.234;6.804;2022-09-16T01:59:52;2.35;;;0.95;;
10711;SDS011;5407;51.234;6.804;2022-09-16T02:02:25;3.08;;;0.90;;
10711;SDS011;5407;51.234;6.804;2022-09-16T02:04:57;3.60;;;0.90;;
10711;SDS011;5407;51.234;6.804;2022-09-16T02:07:28;2.25;;;0.90;;
10711;SDS011;5407;51.234;6.804;2022-09-16T02:10:02;1.95;;;0.95;;
10711;SDS011;5407;51.234;6.804;2022-09-16T02:12:36;1.98;;;0.85;;
10711;SDS011;5407;51.234;6.804;2022-09-16T02:15:07;1.25;;;0.77;;
10711;SDS011;5407;51.234;6.804;2022-09-16T02:17:40;0.77;;;0.52;;
10711;SDS011;5407;51.234;6.804;2022-09-16T02:20:11;1.55;;;0.88;;
10711;SDS011;5407;51.234;6.804;2022-09-16T02:22:42;3.10;;;1.20;;
10711;SDS011;5407;51.234;6.804;2022-09-16T02:25:13;2.58;;;1.00;;
10711;SDS011;5407;51.234;6.804;2022-09-16T02:27:43;3.17;;;0.80;;
10711;SDS011;5407;51.234;6.804;2022-09-16T02:30:13;2.63;;;0.70;;
10711;SDS011;5407;51.234;6.804;2022-09-16T02:32:44;2.72;;;0.90;;
10711;SDS011;5407;51.234;6.804;2022-09-16T02:35:14;1.02;;;0.77;;
10711;SDS011;5407;51.234;6.804;2022-09-16T02:37:46;5.68;;;1.00;;
10711;SDS011;5407;51.234;6.804;2022-09-16T02:40:18;2.40;;;0.93;;
10711;SDS011;5407;51.234;6.804;2022-09-16T02:42:49;2.17;;;1.10;;
10711;SDS011;5407;51.234;6.804;2022-09-16T02:45:17;2.90;;;0.90;;
10711;SDS011;5407;51.234;6.804;2022-09-16T02:47:48;7.75;;;1.38;;
10711;SDS011;5407;51.234;6.804;2022-09-16T02:50:24;5.40;;;0.97;;
10711;SDS011;5407;51.234;6.804;2022-09-16T02:52:55;1.10;;;0.85;;
10711;SDS011;5407;51.234;6.804;2022-09-16T02:55:28;1.30;;;0.82;;
10711;SDS011;5407;51.234;6.804;2022-09-16T02:58:04;1.60;;;0.93;;
10711;SDS011;5407;51.234;6.804;2022-09-16T03:00:32;2.78;;;1.23;;
10711;SDS011;5407;51.234;6.804;2022-09-16T03:03:04;1.92;;;0.75;;
10711;SDS011;5407;51.234;6.804;2022-09-16T03:05:31;1.20;;;0.80;;
10711;SDS011;5407;51.234;6.804;2022-09-16T03:07:58;1.13;;;0.80;;
10711;SDS011;5407;51.234;6.804;2022-09-16T03:10:28;1.73;;;1.00;;
10711;SDS011;5407;51.234;6.804;2022-09-16T03:13:06;3.42;;;1.17;;
10711;SDS011;5407;51.234;6.804;2022-09-16T03:15:41;2.22;;;1.20;;
10711;SDS011;5407;51.234;6.804;2022-09-16T03:18:24;3.25;;;1.17;;
10711;SDS011;5407;51.234;6.804;2022-09-16T03:21:04;2.85;;;1.00;;
10711;SDS011;5407;51.234;6.804;2022-09-16T03:23:42;2.03;;;0.88;;
10711;SDS011;5407;51.234;6.804;2022-09-16T03:26:21;2.13;;;1.00;;
10711;SDS011;5407;51.234;6.804;2022-09-16T03:29:00;3.15;;;1.00;;
10711;SDS011;5407;51.234;6.804;2022-09-16T03:31:37;2.05;;;1.00;;
10711;SDS011;5407;51.234;6.804;2022-09-16T03:34:12;1.75;;;0.90;;
10711;SDS011;5407;51.234;6.804;2022-09-16T03:36:44;2.17;;;0.98;;
10711;SDS011;5407;51.234;6.804;2022-09-16T03:39:16;2.70;;;1.08;;
10711;SDS011;5407;51.234;6.804;2022-09-16T03:41:44;2.30;;;1.23;;
10711;SDS011;5407;51.234;6.804;2022-09-16T03:44:11;2.72;;;1.00;;
10711;SDS011;5407;51.234;6.804;2022-09-16T03:46:38;1.63;;;1.05;;
10711;SDS011;5407;51.234;6.804;2022-09-16T03:49:05;2.50;;;1.27;;
10711;SDS011;5407;51.234;6.804;2022-09-16T03:51:33;2.25;;;0.95;;
10711;SDS011;5407;51.234;6.804;2022-09-16T03:54:00;2.40;;;1.10;;
10711;SDS011;5407;51.234;6.804;2022-09-16T03:56:26;2.15;;;1.27;;
10711;SDS011;5407;51.234;6.804;2022-09-16T03:58:53;3.08;;;1.00;;
10711;SDS011;5407;51.234;6.804;2022-09-16T04:01:20;2.00;;;1.20;;
10711;SDS011;5407;51.234;6.804;2022-09-16T04:03:47;1.65;;;1.10;;
10711;SDS011;5407;51.234;6.804;2022-09-16T04:06:14;2.80;;;1.08;;
10711;SDS011;5407;51.234;6.804;2022-09-16T04:08:42;2.30;;;0.95;;
10711;SDS011;5407;51.234;6.804;2022-09-16T04:11:09;2.67;;;1.20;;
10711;SDS011;5407;51.234;6.804;2022-09-16T04:13:36;4.35;;;1.20;;
10711;SDS011;5407;51.234;6.804;2022-09-16T04:16:03;1.95;;;1.20;;
10711;SDS011;5407;51.234;6.804;2022-09-16T04:18:30;2.95;;;1.30;;
10711;SDS011;5407;51.234;6.804;2022-09-16T04:20:57;2.17;;;1.25;;
10711;SDS011;5407;51.234;6.804;2022-09-16T04:23:25;2.45;;;1.10;;
10711;SDS011;5407;51.234;6.804;2022-09-16T04:25:54;1.98;;;1.00;;
10711;SDS011;5407;51.234;6.804;2022-09-16T04:28:22;1.20;;;1.02;;
10711;SDS011;5407;51.234;6.804;2022-09-16T04:30:49;3.17;;;1.30;;
10711;SDS011;5407;51.234;6.804;2022-09-16T04:33:16;1.77;;;1.02;;
10711;SDS011;5407;51.234;6.804;2022-09-16T04:35:44;4.13;;;1.50;;
10711;SDS011;5407;51.234;6.804;2022-09-16T04:38:10;2.35;;;1.35;;
10711;SDS011;5407;51.234;6.804;2022-09-16T04:40:37;2.90;;;1.23;;
10711;SDS011;5407;51.234;6.804;2022-09-16T04:43:06;1.60;;;1.10;;
10711;SDS011;5407;51.234;6.804;2022-09-16T04:45:33;3.28;;;1.00;;
10711;SDS011;5407;51.234;6.804;2022-09-16T04:48:00;2.53;;;0.98;;
10711;SDS011;5407;51.234;6.804;2022-09-16T04:50:27;4.03;;;1.20;;
10711;SDS011;5407;51.234;6.804;2022-09-16T04:52:54;2.38;;;1.08;;
10711;SDS011;5407;51.234;6.804;2022-09-16T04:55:21;2.50;;;1.20;;
10711;SDS011;5407;51.234;6.804;2022-09-16T04:57:48;2.53;;;1.10;;
10711;SDS011;5407;51.234;6.804;2022-09-16T05:00:16;2.13;;;1.13;;
10711;SDS011;5407;51.234;6.804;2022-09-16T05:02:43;2.95;;;0.95;;
10711;SDS011;5407;51.234;6.804;2022-09-16T05:05:11;3.08;;;1.13;;
10711;SDS011;5407;51.234;6.804;2022-09-16T05:07:37;2.47;;;1.17;;
10711;SDS011;5407;51.234;6.804;2022-09-16T05:10:05;2.03;;;1.30;;
10711;SDS011;5407;51.234;6.804;2022-09-16T05:12:32;2.08;;;1.30;;
10711;SDS011;5407;51.234;6.804;2022-09-16T05:14:59;1.70;;;1.20;;
10711;SDS011;5407;51.234;6.804;2022-09-16T05:17:29;1.77;;;0.95;;
10711;SDS011;5407;51.234;6.804;2022-09-16T05:19:56;2.55;;;1.25;;
10711;SDS011;5407;51.234;6.804;2022-09-16T05:22:23;4.93;;;1.40;;
10711;SDS011;5407;51.234;6.804;2022-09-16T05:24:50;2.30;;;1.27;;
10711;SDS011;5407;51.234;6.804;2022-09-16T05:27:17;3.22;;;1.33;;
10711;SDS011;5407;51.234;6.804;2022-09-16T05:29:44;2.35;;;1.25;;
10711;SDS011;5407;51.234;6.804;2022-09-16T05:32:10;2.47;;;1.40;;
10711;SDS011;5407;51.234;6.804;2022-09-16T05:34:39;2.28;;;1.20;;
10711;SDS011;5407;51.234;6.804;2022-09-16T05:37:06;2.83;;;1.40;;
10711;SDS011;5407;51.234;6.804;2022-09-16T05:39:33;4.38;;;1.50;;
10711;SDS011;5407;51.234;6.804;2022-09-16T05:41:59;2.45;;;1.40;;
10711;SDS011;5407;51.234;6.804;2022-09-16T05:44:28;3.40;;;1.33;;
10711;SDS011;5407;51.234;6.804;2022-09-16T05:46:55;2.92;;;1.30;;
10711;SDS011;5407;51.234;6.804;2022-09-16T05:49:22;2.10;;;1.08;;
10711;SDS011;5407;51.234;6.804;2022-09-16T05:51:51;2.20;;;1.13;;
10711;SDS011;5407;51.234;6.804;2022-09-16T05:54:19;3.08;;;1.40;;
10711;SDS011;5407;51.234;6.804;2022-09-16T05:56:48;1.88;;;1.30;;
10711;SDS011;5407;51.234;6.804;2022-09-16T05:59:15;2.08;;;1.20;;
10711;SDS011;5407;51.234;6.804;2022-09-16T06:01:43;2.33;;;1.20;;
10711;SDS011;5407;51.234;6.804;2022-09-16T06:04:11;2.42;;;1.45;;
10711;SDS011;5407;51.234;6.804;2022-09-16T06:06:40;3.88;;;1.52;;
10711;SDS011;5407;51.234;6.804;2022-09-16T06:09:10;3.13;;;1.30;;
10711;SDS011;5407;51.234;6.804;2022-09-16T06:11:39;4.18;;;1.55;;
10711;SDS011;5407;51.234;6.804;2022-09-16T06:14:07;2.15;;;1.15;;
10711;SDS011;5407;51.234;6.804;2022-09-16T06:16:35;2.55;;;1.35;;
10711;SDS011;5407;51.234;6.804;2022-09-16T06:19:03;2.00;;;1.17;;
10711;SDS011;5407;51.234;6.804;2022-09-16T06:21:34;2.03;;;1.10;;
10711;SDS011;5407;51.234;6.804;2022-09-16T06:24:01;4.47;;;1.65;;
10711;SDS011;5407;51.234;6.804;2022-09-16T06:26:34;4.38;;;1.40;;
10711;SDS011;5407;51.234;6.804;2022-09-16T06:29:02;6.85;;;1.65;;
10711;SDS011;5407;51.234;6.804;2022-09-16T06:31:29;3.08;;;1.77;;
10711;SDS011;5407;51.234;6.804;2022-09-16T06:33:56;3.05;;;1.33;;
10711;SDS011;5407;51.234;6.804;2022-09-16T06:36:25;3.53;;;1.60;;
10711;SDS011;5407;51.234;6.804;2022-09-16T06:38:52;5.47;;;1.50;;
10711;SDS011;5407;51.234;6.804;2022-09-16T06:41:20;4.90;;;1.60;;
10711;SDS011;5407;51.234;6.804;2022-09-16T06:43:49;4.10;;;1.58;;
10711;SDS011;5407;51.234;6.804;2022-09-16T06:46:17;3.63;;;1.70;;
10711;SDS011;5407;51.234;6.804;2022-09-16T06:48:45;8.57;;;1.42;;
10711;SDS011;5407;51.234;6.804;2022-09-16T06:51:16;4.57;;;1.30;;
10711;SDS011;5407;51.234;6.804;2022-09-16T06:53:44;5.35;;;1.40;;
10711;SDS011;5407;51.234;6.804;2022-09-16T06:56:12;10.15;;;1.80;;
10711;SDS011;5407;51.234;6.804;2022-09-16T06:58:41;19.08;;;1.95;;
10711;SDS011;5407;51.234;6.804;2022-09-16T07:01:14;5.30;;;1.65;;
10711;SDS011;5407;51.234;6.804;2022-09-16T07:03:42;3.15;;;1.10;;
10711;SDS011;5407;51.234;6.804;2022-09-16T07:06:11;10.45;;;1.60;;
10711;SDS011;5407;51.234;6.804;2022-09-16T07:08:39;7.43;;;1.60;;
10711;SDS011;5407;51.234;6.804;2022-09-16T07:11:08;7.50;;;1.73;;
10711;SDS011;5407;51.234;6.804;2022-09-16T07:13:36;4.43;;;1.55;;
10711;SDS011;5407;51.234;6.804;2022-09-16T07:16:05;7.30;;;1.70;;
10711;SDS011;5407;51.234;6.804;2022-09-16T07:18:34;5.50;;;1.77;;
10711;SDS011;5407;51.234;6.804;2022-09-16T07:21:03;6.00;;;1.50;;
10711;SDS011;5407;51.234;6.804;2022-09-16T07:23:32;7.97;;;1.35;;
10711;SDS011;5407;51.234;6.804;2022-09-16T07:26:01;6.15;;;1.70;;
10711;SDS011;5407;51.234;6.804;2022-09-16T07:28:29;4.85;;;1.40;;
10711;SDS011;5407;51.234;6.804;2022-09-16T07:30:59;5.75;;;1.70;;
10711;SDS011;5407;51.234;6.804;2022-09-16T07:33:26;6.65;;;1.58;;
10711;SDS011;5407;51.234;6.804;2022-09-16T07:35:57;7.25;;;1.80;;
10711;SDS011;5407;51.234;6.804;2022-09-16T07:38:25;5.63;;;1.40;;
10711;SDS011;5407;51.234;6.804;2022-09-16T07:40:52;7.53;;;1.30;;
10711;SDS011;5407;51.234;6.804;2022-09-16T07:43:19;5.93;;;1.77;;
10711;SDS011;5407;51.234;6.804;2022-09-16T07:45:46;3.63;;;1.38;;
10711;SDS011;5407;51.234;6.804;2022-09-16T07:48:20;11.55;;;2.03;;
10711;SDS011;5407;51.234;6.804;2022-09-16T07:50:52;10.80;;;2.43;;
10711;SDS011;5407;51.234;6.804;2022-09-16T07:53:21;8.68;;;2.80;;
10711;SDS011;5407;51.234;6.804;2022-09-16T07:55:48;15.27;;;3.58;;
10711;SDS011;5407;51.234;6.804;2022-09-16T07:58:15;8.73;;;3.00;;
10711;SDS011;5407;51.234;6.804;2022-09-16T08:00:42;8.65;;;2.95;;
10711;SDS011;5407;51.234;6.804;2022-09-16T08:03:09;5.22;;;2.28;;
10711;SDS011;5407;51.234;6.804;2022-09-16T08:05:35;8.80;;;2.75;;
10711;SDS011;5407;51.234;6.804;2022-09-16T08:08:02;11.13;;;2.50;;
10711;SDS011;5407;51.234;6.804;2022-09-16T08:10:30;8.00;;;2.60;;
10711;SDS011;5407;51.234;6.804;2022-09-16T08:12:57;6.40;;;2.70;;
10711;SDS011;5407;51.234;6.804;2022-09-16T08:15:24;7.45;;;2.33;;
10711;SDS011;5407;51.234;6.804;2022-09-16T08:17:51;11.88;;;2.63;;
10711;SDS011;5407;51.234;6.804;2022-09-16T08:20:18;7.95;;;2.50;;
10711;SDS011;5407;51.234;6.804;2022-09-16T08:22:45;9.43;;;2.58;;
10711;SDS011;5407;51.234;6.804;2022-09-16T08:25:12;6.00;;;1.92;;
10711;SDS011;5407;51.234;6.804;2022-09-16T08:27:40;5.25;;;2.03;;
10711;SDS011;5407;51.234;6.804;2022-09-16T08:30:08;13.40;;;2.20;;
10711;SDS011;5407;51.234;6.804;2022-09-16T08:32:36;5.35;;;2.10;;
10711;SDS011;5407;51.234;6.804;2022-09-16T08:35:03;5.95;;;2.50;;
10711;SDS011;5407;51.234;6.804;2022-09-16T08:37:30;10.63;;;2.33;;
10711;SDS011;5407;51.234;6.804;2022-09-16T08:39:57;5.95;;;2.85;;
10711;SDS011;5407;51.234;6.804;2022-09-16T08:42:30;5.10;;;2.95;;
10711;SDS011;5407;51.234;6.804;2022-09-16T08:45:14;12.27;;;2.08;;
10711;SDS011;5407;51.234;6.804;2022-09-16T08:47:49;3.95;;;1.65;;
10711;SDS011;5407;51.234;6.804;2022-09-16T08:50:27;3.75;;;1.60;;
10711;SDS011;5407;51.234;6.804;2022-09-16T08:52:55;4.47;;;2.00;;
10711;SDS011;5407;51.234;6.804;2022-09-16T08:55:25;10.63;;;1.83;;
10711;SDS011;5407;51.234;6.804;2022-09-16T08:57:57;5.13;;;1.85;;
10711;SDS011;5407;51.234;6.804;2022-09-16T09:00:28;3.40;;;1.70;;
10711;SDS011;5407;51.234;6.804;2022-09-16T09:02:56;6.78;;;1.70;;
10711;SDS011;5407;51.234;6.804;2022-09-16T09:05:28;4.07;;;1.55;;
10711;SDS011;5407;51.234;6.804;2022-09-16T09:08:04;5.35;;;1.60;;
10711;SDS011;5407;51.234;6.804;2022-09-16T09:10:41;3.95;;;1.33;;
10711;SDS011;5407;51.234;6.804;2022-09-16T09:13:20;5.07;;;1.60;;
10711;SDS011;5407;51.234;6.804;2022-09-16T09:15:59;4.63;;;1.60;;
10711;SDS011;5407;51.234;6.804;2022-09-16T09:18:35;2.67;;;1.48;;
10711;SDS011;5407;51.234;6.804;2022-09-16T09:21:13;4.07;;;1.58;;
10711;SDS011;5407;51.234;6.804;2022-09-16T09:23:52;3.55;;;1.45;;
10711;SDS011;5407;51.234;6.804;2022-09-16T09:26:32;2.72;;;1.30;;
10711;SDS011;5407;51.234;6.804;2022-09-16T09:29:17;3.55;;;1.38;;
10711;SDS011;5407;51.234;6.804;2022-09-16T09:31:55;3.15;;;1.35;;
10711;SDS011;5407;51.234;6.804;2022-09-16T09:34:36;2.30;;;1.25;;
10711;SDS011;5407;51.234;6.804;2022-09-16T09:37:17;2.03;;;1.25;;
10711;SDS011;5407;51.234;6.804;2022-09-16T09:40:01;2.10;;;1.48;;
10711;SDS011;5407;51.234;6.804;2022-09-16T09:42:35;2.15;;;1.30;;
10711;SDS011;5407;51.234;6.804;2022-09-16T09:45:11;3.38;;;1.30;;
10711;SDS011;5407;51.234;6.804;2022-09-16T09:47:44;2.78;;;1.45;;
10711;SDS011;5407;51.234;6.804;2022-09-16T09:50:14;1.58;;;1.30;;
10711;SDS011;5407;51.234;6.804;2022-09-16T09:52:49;6.60;;;1.70;;
10711;SDS011;5407;51.234;6.804;2022-09-16T09:55:23;1.92;;;1.38;;
10711;SDS011;5407;51.234;6.804;2022-09-16T09:57:58;3.78;;;1.38;;
10711;SDS011;5407;51.234;6.804;2022-09-16T10:00:32;2.30;;;1.17;;
10711;SDS011;5407;51.234;6.804;2022-09-16T10:03:03;1.50;;;1.02;;
10711;SDS011;5407;51.234;6.804;2022-09-16T10:05:32;3.42;;;1.17;;
10711;SDS011;5407;51.234;6.804;2022-09-16T10:08:01;1.70;;;1.10;;
10711;SDS011;5407;51.234;6.804;2022-09-16T10:10:31;2.55;;;1.10;;
10711;SDS011;5407;51.234;6.804;2022-09-16T10:13:06;1.95;;;1.10;;
10711;SDS011;5407;51.234;6.804;2022-09-16T10:15:35;6.90;;;1.45;;
10711;SDS011;5407;51.234;6.804;2022-09-16T10:18:07;4.82;;;1.42;;
10711;SDS011;5407;51.234;6.804;2022-09-16T10:20:38;4.50;;;1.33;;
10711;SDS011;5407;51.234;6.804;2022-09-16T10:23:09;7.90;;;1.15;;
10711;SDS011;5407;51.234;6.804;2022-09-16T10:25:38;5.93;;;1.45;;
10711;SDS011;5407;51.234;6.804;2022-09-16T10:28:17;10.57;;;1.25;;
10711;SDS011;5407;51.234;6.804;2022-09-16T10:30:48;2.20;;;1.08;;
10711;SDS011;5407;51.234;6.804;2022-09-16T10:33:20;2.15;;;1.20;;
10711;SDS011;5407;51.234;6.804;2022-09-16T10:35:51;4.07;;;1.17;;
10711;SDS011;5407;51.234;6.804;2022-09-16T10:38:22;2.03;;;0.93;;
10711;SDS011;5407;51.234;6.804;2022-09-16T10:40:52;1.70;;;1.10;;
10711;SDS011;5407;51.234;6.804;2022-09-16T10:43:22;2.45;;;1.20;;
10711;SDS011;5407;51.234;6.804;2022-09-16T10:45:52;1.55;;;1.10;;
10711;SDS011;5407;51.234;6.804;2022-09-16T10:48:21;5.22;;;1.15;;
10711;SDS011;5407;51.234;6.804;2022-09-16T10:50:51;2.42;;;1.00;;
10711;SDS011;5407;51.234;6.804;2022-09-16T10:53:20;3.38;;;1.10;;
10711;SDS011;5407;51.234;6.804;2022-09-16T10:55:55;2.20;;;1.30;;
10711;SDS011;5407;51.234;6.804;2022-09-16T10:58:23;2.28;;;1.13;;
10711;SDS011;5407;51.234;6.804;2022-09-16T11:00:59;2.80;;;1.00;;
10711;SDS011;5407;51.234;6.804;2022-09-16T11:03:39;2.72;;;1.05;;
10711;SDS011;5407;51.234;6.804;2022-09-16T11:06:34;1.90;;;0.90;;
10711;SDS011;5407;51.234;6.804;2022-09-16T11:09:12;5.18;;;1.63;;
10711;SDS011;5407;51.234;6.804;2022-09-16T11:14:49;3.00;;;1.55;;
10711;SDS011;5407;51.234;6.804;2022-09-16T11:17:30;5.43;;;2.20;;
10711;SDS011;5407;51.234;6.804;2022-09-16T11:23:06;3.85;;;1.75;;
10711;SDS011;5407;51.234;6.804;2022-09-16T11:25:42;3.05;;;1.17;;
10711;SDS011;5407;51.234;6.804;2022-09-16T11:28:27;1.70;;;0.95;;
10711;SDS011;5407;51.234;6.804;2022-09-16T11:31:22;2.47;;;1.15;;
10711;SDS011;5407;51.234;6.804;2022-09-16T11:34:02;1.95;;;1.10;;
10711;SDS011;5407;51.234;6.804;2022-09-16T11:36:40;2.92;;;1.30;;
10711;SDS011;5407;51.234;6.804;2022-09-16T11:39:25;2.17;;;1.17;;
10711;SDS011;5407;51.234;6.804;2022-09-16T11:42:07;2.10;;;1.10;;
10711;SDS011;5407;51.234;6.804;2022-09-16T11:44:43;3.08;;;1.05;;
10711;SDS011;5407;51.234;6.804;2022-09-16T11:50:16;2.78;;;1.20;;
10711;SDS011;5407;51.234;6.804;2022-09-16T11:53:02;1.35;;;1.00;;
10711;SDS011;5407;51.234;6.804;2022-09-16T11:55:50;7.70;;;1.40;;
10711;SDS011;5407;51.234;6.804;2022-09-16T11:58:25;3.25;;;1.25;;
10711;SDS011;5407;51.234;6.804;2022-09-16T12:00:59;2.60;;;1.10;;
10711;SDS011;5407;51.234;6.804;2022-09-16T12:03:34;4.13;;;1.20;;
10711;SDS011;5407;51.234;6.804;2022-09-16T12:06:09;1.67;;;1.25;;
10711;SDS011;5407;51.234;6.804;2022-09-16T12:08:47;2.22;;;1.10;;
10711;SDS011;5407;51.234;6.804;2022-09-16T12:11:21;2.30;;;1.02;;
10711;SDS011;5407;51.234;6.804;2022-09-16T12:13:59;3.53;;;1.10;;
10711;SDS011;5407;51.234;6.804;2022-09-16T12:16:33;1.15;;;0.80;;
10711;SDS011;5407;51.234;6.804;2022-09-16T12:19:07;1.73;;;1.20;;
10711;SDS011;5407;51.234;6.804;2022-09-16T12:21:39;2.55;;;0.95;;
10711;SDS011;5407;51.234;6.804;2022-09-16T12:24:13;1.95;;;0.98;;
10711;SDS011;5407;51.234;6.804;2022-09-16T12:26:47;1.73;;;0.93;;
10711;SDS011;5407;51.234;6.804;2022-09-16T12:29:18;4.38;;;0.90;;
10711;SDS011;5407;51.234;6.804;2022-09-16T12:31:50;2.42;;;1.33;;
10711;SDS011;5407;51.234;6.804;2022-09-16T12:34:21;3.17;;;0.93;;
10711;SDS011;5407;51.234;6.804;2022-09-16T12:36:53;2.17;;;1.10;;
10711;SDS011;5407;51.234;6.804;2022-09-16T12:39:26;1.42;;;1.10;;
10711;SDS011;5407;51.234;6.804;2022-09-16T12:42:20;2.10;;;1.00;;
10711;SDS011;5407;51.234;6.804;2022-09-16T12:45:07;2.67;;;0.90;;
10711;SDS011;5407;51.234;6.804;2022-09-16T12:47:58;3.35;;;1.08;;
10711;SDS011;5407;51.234;6.804;2022-09-16T12:53:25;1.02;;;0.90;;
10711;SDS011;5407;51.234;6.804;2022-09-16T12:56:11;1.10;;;0.85;;
10711;SDS011;5407;51.234;6.804;2022-09-16T13:01:42;0.80;;;0.80;;
10711;SDS011;5407;51.234;6.804;2022-09-16T13:04:13;1.05;;;0.88;;
10711;SDS011;5407;51.234;6.804;2022-09-16T13:06:44;2.45;;;0.90;;
10711;SDS011;5407;51.234;6.804;2022-09-16T13:09:22;1.20;;;1.00;;
10711;SDS011;5407;51.234;6.804;2022-09-16T13:11:54;2.35;;;0.85;;
10711;SDS011;5407;51.234;6.804;2022-09-16T13:14:23;0.90;;;0.77;;
10711;SDS011;5407;51.234;6.804;2022-09-16T13:16:54;3.05;;;1.38;;
10711;SDS011;5407;51.234;6.804;2022-09-16T13:19:35;2.08;;;1.00;;
10711;SDS011;5407;51.234;6.804;2022-09-16T13:22:21;3.45;;;1.10;;
10711;SDS011;5407;51.234;6.804;2022-09-16T13:24:55;10.90;;;1.80;;
10711;SDS011;5407;51.234;6.804;2022-09-16T13:27:28;1.60;;;1.00;;
10711;SDS011;5407;51.234;6.804;2022-09-16T13:33:01;3.55;;;1.00;;
10711;SDS011;5407;51.234;6.804;2022-09-16T13:35:46;0.88;;;0.80;;
10711;SDS011;5407;51.234;6.804;2022-09-16T13:38:22;1.65;;;0.90;;
10711;SDS011;5407;51.234;6.804;2022-09-16T13:40:53;2.15;;;1.00;;
10711;SDS011;5407;51.234;6.804;2022-09-16T13:43:28;2.50;;;0.77;;
10711;SDS011;5407;51.234;6.804;2022-09-16T13:46:12;1.58;;;1.08;;
10711;SDS011;5407;51.234;6.804;2022-09-16T13:48:52;4.30;;;1.40;;
10711;SDS011;5407;51.234;6.804;2022-09-16T13:51:22;2.22;;;1.25;;
10711;SDS011;5407;51.234;6.804;2022-09-16T13:53:49;2.53;;;1.10;;
10711;SDS011;5407;51.234;6.804;2022-09-16T13:56:23;2.33;;;1.58;;
10711;SDS011;5407;51.234;6.804;2022-09-16T13:59:03;1.77;;;1.10;;
10711;SDS011;5407;51.234;6.804;2022-09-16T14:01:42;2.50;;;1.10;;
10711;SDS011;5407;51.234;6.804;2022-09-16T14:04:21;2.35;;;1.30;;
10711;SDS011;5407;51.234;6.804;2022-09-16T14:07:01;2.53;;;1.45;;
10711;SDS011;5407;51.234;6.804;2022-09-16T14:09:41;1.60;;;0.80;;
10711;SDS011;5407;51.234;6.804;2022-09-16T14:12:17;1.30;;;1.10;;
10711;SDS011;5407;51.234;6.804;2022-09-16T14:14:50;2.25;;;1.05;;
10711;SDS011;5407;51.234;6.804;2022-09-16T14:17:19;1.55;;;1.10;;
10711;SDS011;5407;51.234;6.804;2022-09-16T14:19:50;2.80;;;1.33;;
10711;SDS011;5407;51.234;6.804;2022-09-16T14:22:20;1.30;;;0.90;;
10711;SDS011;5407;51.234;6.804;2022-09-16T14:24:50;3.70;;;0.80;;
10711;SDS011;5407;51.234;6.804;2022-09-16T14:27:20;1.38;;;0.90;;
10711;SDS011;5407;51.234;6.804;2022-09-16T14:29:54;0.90;;;0.90;;
10711;SDS011;5407;51.234;6.804;2022-09-16T14:32:23;0.80;;;0.80;;
10711;SDS011;5407;51.234;6.804;2022-09-16T14:34:52;1.85;;;0.88;;
10711;SDS011;5407;51.234;6.804;2022-09-16T14:37:20;1.88;;;0.90;;
10711;SDS011;5407;51.234;6.804;2022-09-16T14:39:50;3.58;;;1.20;;
10711;SDS011;5407;51.234;6.804;2022-09-16T14:42:19;1.00;;;0.90;;
10711;SDS011;5407;51.234;6.804;2022-09-16T14:44:49;0.82;;;0.70;;
10711;SDS011;5407;51.234;6.804;2022-09-16T14:47:18;1.27;;;0.90;;
10711;SDS011;5407;51.234;6.804;2022-09-16T14:49:49;2.08;;;0.90;;
10711;SDS011;5407;51.234;6.804;2022-09-16T14:52:30;1.25;;;0.70;;
10711;SDS011;5407;51.234;6.804;2022-09-16T14:54:59;1.23;;;0.93;;
10711;SDS011;5407;51.234;6.804;2022-09-16T14:57:28;0.80;;;0.80;;
10711;SDS011;5407;51.234;6.804;2022-09-16T14:59:58;1.63;;;0.90;;
10711;SDS011;5407;51.234;6.804;2022-09-16T15:02:29;2.58;;;1.20;;
10711;SDS011;5407;51.234;6.804;2022-09-16T15:05:07;1.20;;;0.70;;
10711;SDS011;5407;51.234;6.804;2022-09-16T15:07:41;1.13;;;0.80;;
10711;SDS011;5407;51.234;6.804;2022-09-16T15:10:13;2.78;;;1.10;;
10711;SDS011;5407;51.234;6.804;2022-09-16T15:12:48;1.60;;;0.90;;
10711;SDS011;5407;51.234;6.804;2022-09-16T15:15:18;1.70;;;0.98;;
10711;SDS011;5407;51.234;6.804;2022-09-16T15:17:50;1.85;;;0.88;;
10711;SDS011;5407;51.234;6.804;2022-09-16T15:20:19;1.73;;;1.10;;
10711;SDS011;5407;51.234;6.804;2022-09-16T15:22:47;1.38;;;0.77;;
10711;SDS011;5407;51.234;6.804;2022-09-16T15:25:18;2.60;;;0.90;;
10711;SDS011;5407;51.234;6.804;2022-09-16T15:27:49;1.20;;;0.88;;
10711;SDS011;5407;51.234;6.804;2022-09-16T15:30:20;2.78;;;1.05;;
10711;SDS011;5407;51.234;6.804;2022-09-16T15:32:49;1.33;;;1.10;;
10711;SDS011;5407;51.234;6.804;2022-09-16T15:35:20;1.48;;;1.00;;
10711;SDS011;5407;51.234;6.804;2022-09-16T15:37:49;1.23;;;1.00;;
10711;SDS011;5407;51.234;6.804;2022-09-16T15:43:09;2.58;;;1.10;;
10711;SDS011;5407;51.234;6.804;2022-09-16T15:45:42;3.08;;;1.10;;
10711;SDS011;5407;51.234;6.804;2022-09-16T15:48:12;2.45;;;1.05;;